Time;durP1;ratioP1;P1;durP2;ratioP2;P2;SDS_P1;SDS_P2;PMS_P1;PMS_P2;Temp;Humidity;BMP_temperature;BMP_pressure;BME280_temperature;BME280_humidity;BME280_pressure;Samples;Min_cycle;Max_cycle;Signal;HPM_P1;HPM_P2
2022/06/05 00:02:05;;;;;;;;;;;13.30;99.90;;;;;;4979045;28;19940;-87
2022/06/05 00:04:42;;;;;;;;;;;13.30;99.90;;;;;;4963026;28;19934;-89
2022/06/05 00:07:15;;;;;;;;;;;13.30;99.90;;;;;;4980750;28;19930;-88
2022/06/05 00:10:00;;;;;;;;;;;13.40;99.90;;;;;;4979458;28;19949;-88
2022/06/05 00:12:38;;;;;;;;;;;13.00;99.90;;;;;;4976076;28;19930;-89
2022/06/05 00:15:09;;;;;;;;;;;13.20;99.90;;;;;;4961397;28;19930;-88
2022/06/05 00:17:37;;;;;;;;;;;13.20;99.90;;;;;;4971487;28;19937;-88
2022/06/05 00:20:06;;;;;;;;;;;13.20;99.90;;;;;;4957825;28;19927;-87
2022/06/05 00:22:33;;;;;;;;;;;13.10;99.90;;;;;;4955646;28;19927;-88
2022/06/05 00:25:01;;;;;;;;;;;12.20;99.90;;;;;;4977858;28;19938;-87
2022/06/05 00:27:46;;;;;;;;;;;13.10;99.90;;;;;;4969468;28;19930;-88
2022/06/05 00:30:24;;;;;;;;;;;13.20;99.90;;;;;;4960078;28;19926;-88
2022/06/05 00:32:57;;;;;;;;;;;13.00;99.90;;;;;;4959608;28;19937;-87
2022/06/05 00:35:30;;;;;;;;;;;12.80;99.90;;;;;;4957639;28;19926;-88
2022/06/05 00:38:12;;;;;;;;;;;13.00;99.90;;;;;;4976926;28;19926;-88
2022/06/05 00:41:00;;;;;;;;;;;13.20;99.90;;;;;;4960923;28;19937;-88
2022/06/05 00:43:28;;;;;;;;;;;13.10;99.90;;;;;;4965813;28;19926;-88
2022/06/05 00:45:57;;;;;;;;;;;13.00;99.90;;;;;;4970605;28;19926;-89
2022/06/05 00:48:25;;;;;;;;;;;13.10;99.90;;;;;;4964100;29;19937;-88
2022/06/05 00:50:53;;;;;;;;;;;13.10;99.90;;;;;;4950883;28;19933;-88
2022/06/05 00:53:21;;;;;;;;;;;13.00;99.90;;;;;;4967998;28;19930;-86
2022/06/05 00:55:50;;;;;;;;;;;12.40;99.90;;;;;;4961835;28;19930;-88
2022/06/05 00:58:19;;;;;;;;;;;13.00;99.90;;;;;;4956936;28;20330;-87
2022/06/05 01:00:48;;;;;;;;;;;14.50;99.90;;;;;;4957496;29;19931;-88
2022/06/05 01:03:23;;;;;;;;;;;13.00;99.90;;;;;;4961402;28;19930;-87
2022/06/05 01:05:55;;;;;;;;;;;13.40;99.90;;;;;;4958471;28;19926;-88
2022/06/05 01:08:22;;;;;;;;;;;13.00;99.90;;;;;;4972820;28;19931;-87
2022/06/05 01:11:06;;;;;;;;;;;13.00;99.90;;;;;;4977057;28;19937;-87
2022/06/05 01:13:42;;;;;;;;;;;13.00;99.90;;;;;;4965194;28;19937;-87
2022/06/05 01:16:13;;;;;;;;;;;13.10;99.90;;;;;;4965786;28;19930;-87
2022/06/05 01:19:00;;;;;;;;;;;13.10;99.90;;;;;;4960477;28;20554;-88
2022/06/05 01:21:47;;;;;;;;;;;13.90;99.90;;;;;;4975416;28;19926;-88
2022/06/05 01:24:33;;;;;;;;;;;13.00;99.90;;;;;;4960617;28;19927;-87
2022/06/05 01:27:02;;;;;;;;;;;13.10;99.90;;;;;;4958418;28;20386;-87
2022/06/05 01:29:38;;;;;;;;;;;13.00;99.90;;;;;;4958502;28;19926;-86
2022/06/05 01:32:08;;;;;;;;;;;13.60;99.90;;;;;;4974198;28;19998;-87
2022/06/05 01:34:40;;;;;;;;;;;13.10;99.90;;;;;;4954868;29;19930;-88
2022/06/05 01:37:14;;;;;;;;;;;13.00;99.90;;;;;;4955798;29;19931;-89
2022/06/05 01:39:54;;;;;;;;;;;12.90;99.90;;;;;;4983964;28;19930;-88
2022/06/05 01:42:37;;;;;;;;;;;13.10;99.90;;;;;;4958855;28;20305;-88
2022/06/05 01:45:08;;;;;;;;;;;13.00;99.90;;;;;;4956049;28;19933;-87
2022/06/05 01:47:37;;;;;;;;;;;13.00;99.90;;;;;;4958883;28;19926;-88
2022/06/05 01:50:16;;;;;;;;;;;13.00;99.90;;;;;;4959470;28;19926;-88
2022/06/05 01:52:47;;;;;;;;;;;13.10;99.90;;;;;;4975680;28;19926;-88
2022/06/05 01:55:16;;;;;;;;;;;13.10;99.90;;;;;;4974541;28;19926;-87
2022/06/05 01:57:44;;;;;;;;;;;13.00;99.90;;;;;;4958391;28;19929;-88
2022/06/05 02:00:14;;;;;;;;;;;13.00;99.90;;;;;;4958819;28;19937;-88
2022/06/05 02:02:44;;;;;;;;;;;12.90;99.90;;;;;;4975210;28;20467;-88
2022/06/05 02:05:14;;;;;;;;;;;13.00;99.90;;;;;;4974438;28;19926;-88
2022/06/05 02:07:44;;;;;;;;;;;12.90;99.90;;;;;;4973826;28;19930;-87
2022/06/05 02:10:19;;;;;;;;;;;12.90;99.90;;;;;;4965160;28;19931;-86
2022/06/05 02:12:47;;;;;;;;;;;12.90;99.90;;;;;;4954199;29;19933;-87
2022/06/05 02:15:15;;;;;;;;;;;12.80;99.90;;;;;;4938742;28;20391;-87
2022/06/05 02:17:42;;;;;;;;;;;12.80;99.90;;;;;;4973372;28;19926;-87
2022/06/05 02:20:10;;;;;;;;;;;12.80;99.90;;;;;;4956324;28;20270;-87
2022/06/05 02:22:41;;;;;;;;;;;13.40;99.90;;;;;;4933707;29;19926;-88
2022/06/05 02:25:09;;;;;;;;;;;12.80;99.90;;;;;;4952401;29;19927;-87
2022/06/05 02:27:37;;;;;;;;;;;12.80;99.90;;;;;;4967943;28;19938;-86
2022/06/05 02:30:05;;;;;;;;;;;12.80;99.90;;;;;;4942927;28;19934;-87
2022/06/05 02:32:40;;;;;;;;;;;12.90;99.90;;;;;;4956960;28;19926;-87
2022/06/05 02:35:11;;;;;;;;;;;12.90;99.90;;;;;;4973339;28;19933;-87
2022/06/05 02:37:58;;;;;;;;;;;12.90;99.90;;;;;;4956771;28;19926;-87
2022/06/05 02:40:41;;;;;;;;;;;12.80;99.90;;;;;;4955950;28;19926;-87
2022/06/05 02:43:21;;;;;;;;;;;12.70;99.90;;;;;;4969287;28;19933;-87
2022/06/05 02:45:49;;;;;;;;;;;12.80;99.90;;;;;;4941247;28;20008;-87
2022/06/05 02:48:32;;;;;;;;;;;12.90;99.90;;;;;;4957010;28;19933;-87
2022/06/05 02:51:22;;;;;;;;;;;12.90;99.90;;;;;;4973477;28;19937;-87
2022/06/05 02:53:51;;;;;;;;;;;12.90;99.90;;;;;;4959036;28;20434;-87
2022/06/05 02:56:20;;;;;;;;;;;12.90;99.90;;;;;;4953286;28;19953;-87
2022/06/05 02:58:49;;;;;;;;;;;12.90;99.90;;;;;;4957141;28;19930;-87
2022/06/05 03:04:07;;;;;;;;;;;12.90;99.90;;;;;;4955666;29;19977;-87
2022/06/05 03:06:39;;;;;;;;;;;12.20;99.90;;;;;;4955341;29;19930;-88
2022/06/05 03:09:08;;;;;;;;;;;12.90;99.90;;;;;;4971692;28;19931;-87
2022/06/05 03:11:40;;;;;;;;;;;13.00;99.90;;;;;;4955716;28;19926;-87
2022/06/05 03:14:08;;;;;;;;;;;13.00;99.90;;;;;;4980391;28;19934;-87
2022/06/05 03:16:36;;;;;;;;;;;13.00;99.90;;;;;;4981678;28;19932;-87
2022/06/05 03:19:03;;;;;;;;;;;13.10;99.90;;;;;;4962217;29;19926;-86
2022/06/05 03:21:31;;;;;;;;;;;13.00;99.90;;;;;;4951599;28;19922;-88
2022/06/05 03:23:59;;;;;;;;;;;13.00;99.90;;;;;;4939033;29;20287;-87
2022/06/05 03:26:28;;;;;;;;;;;13.00;99.90;;;;;;4938751;28;19933;-87
2022/06/05 03:28:56;;;;;;;;;;;13.00;99.90;;;;;;4939903;29;19945;-87
2022/06/05 03:31:23;;;;;;;;;;;12.50;99.90;;;;;;4938486;29;19927;-87
2022/06/05 03:33:51;;;;;;;;;;;13.00;99.90;;;;;;4955261;28;19926;-87
2022/06/05 03:36:19;;;;;;;;;;;13.00;99.90;;;;;;4957377;28;19930;-88
2022/06/05 03:38:46;;;;;;;;;;;13.00;99.90;;;;;;4957090;28;19933;-87
2022/06/05 03:41:15;;;;;;;;;;;12.90;99.90;;;;;;4957508;28;19926;-86
2022/06/05 03:43:43;;;;;;;;;;;13.00;99.90;;;;;;4973078;28;19926;-86
2022/06/05 03:46:13;;;;;;;;;;;13.10;99.90;;;;;;4957873;28;20297;-87
2022/06/05 03:48:40;;;;;;;;;;;13.10;99.90;;;;;;4973818;28;20298;-87
2022/06/05 03:51:13;;;;;;;;;;;13.10;99.90;;;;;;4956860;28;19930;-86
2022/06/05 03:53:41;;;;;;;;;;;13.10;99.90;;;;;;4957362;28;19926;-87
2022/06/05 03:56:14;;;;;;;;;;;13.10;99.90;;;;;;4942209;28;19926;-86
2022/06/05 03:58:42;;;;;;;;;;;13.10;99.90;;;;;;4950324;28;19946;-86
2022/06/05 04:01:10;;;;;;;;;;;13.10;99.90;;;;;;4956419;28;19926;-87
2022/06/05 04:03:38;;;;;;;;;;;13.10;99.90;;;;;;4947921;28;19930;-87
2022/06/05 04:06:14;;;;;;;;;;;13.10;99.90;;;;;;4941648;29;20287;-86
2022/06/05 04:08:42;;;;;;;;;;;13.10;99.90;;;;;;4949301;28;19929;-87
2022/06/05 04:11:11;;;;;;;;;;;13.10;99.90;;;;;;4960253;28;19917;-86
2022/06/05 04:13:39;;;;;;;;;;;13.10;99.90;;;;;;4960788;28;19932;-86
2022/06/05 04:16:14;;;;;;;;;;;13.10;99.90;;;;;;4990229;28;20313;-87
2022/06/05 04:18:42;;;;;;;;;;;13.10;99.90;;;;;;4956634;28;20598;-87
2022/06/05 04:21:11;;;;;;;;;;;13.20;99.90;;;;;;4959714;28;19948;-87
2022/06/05 04:23:38;;;;;;;;;;;13.50;99.90;;;;;;4957426;28;20444;-87
2022/06/05 04:26:09;;;;;;;;;;;13.30;99.90;;;;;;4973832;28;19930;-87
2022/06/05 04:28:37;;;;;;;;;;;13.20;99.90;;;;;;4958483;28;19930;-87
2022/06/05 04:31:14;;;;;;;;;;;13.20;99.90;;;;;;4973911;28;19937;-87
2022/06/05 04:33:42;;;;;;;;;;;13.20;99.90;;;;;;4973769;28;19926;-87
2022/06/05 04:36:10;;;;;;;;;;;13.20;99.90;;;;;;4975242;28;20281;-87
2022/06/05 04:38:37;;;;;;;;;;;13.10;99.90;;;;;;4974874;28;19930;-87
2022/06/05 04:41:05;;;;;;;;;;;13.20;99.90;;;;;;4970580;28;20390;-87
2022/06/05 04:43:33;;;;;;;;;;;13.40;99.90;;;;;;4939691;28;19926;-87
2022/06/05 04:46:01;;;;;;;;;;;13.00;99.90;;;;;;4984861;28;19931;-86
2022/06/05 04:48:29;;;;;;;;;;;13.20;99.90;;;;;;4956172;28;19935;-87
2022/06/05 04:50:56;;;;;;;;;;;13.20;99.90;;;;;;4971105;28;19933;-86
2022/06/05 04:53:24;;;;;;;;;;;13.20;99.90;;;;;;4955139;28;19978;-86
2022/06/05 04:55:51;;;;;;;;;;;13.30;99.90;;;;;;4967627;28;19933;-86
2022/06/05 04:58:19;;;;;;;;;;;13.30;99.90;;;;;;4605146;28;10000856;-86
2022/06/05 05:00:46;;;;;;;;;;;12.70;99.90;;;;;;4916864;28;19937;-86
2022/06/05 05:03:14;;;;;;;;;;;12.30;99.90;;;;;;4949389;28;20413;-87
2022/06/05 05:05:42;;;;;;;;;;;12.90;99.90;;;;;;4936069;28;19937;-86
2022/06/05 05:08:09;;;;;;;;;;;13.30;99.90;;;;;;4971728;28;19926;-86
2022/06/05 05:10:36;;;;;;;;;;;12.60;99.90;;;;;;4957109;28;20656;-87
2022/06/05 05:13:04;;;;;;;;;;;13.40;99.90;;;;;;4938283;28;19926;-86
2022/06/05 05:15:32;;;;;;;;;;;13.50;99.90;;;;;;4938179;28;19933;-87
2022/06/05 05:17:59;;;;;;;;;;;13.70;99.90;;;;;;4954384;28;20433;-87
2022/06/05 05:20:27;;;;;;;;;;;13.40;99.90;;;;;;4968647;28;20476;-86
2022/06/05 05:22:54;;;;;;;;;;;13.40;99.90;;;;;;4936781;28;19926;-86
2022/06/05 05:25:22;;;;;;;;;;;13.40;99.90;;;;;;4969659;28;19949;-86
2022/06/05 05:27:50;;;;;;;;;;;13.40;99.90;;;;;;4969764;28;19926;-85
2022/06/05 05:30:18;;;;;;;;;;;13.40;99.90;;;;;;4960471;28;20294;-86
2022/06/05 05:32:45;;;;;;;;;;;14.40;99.90;;;;;;4950799;29;19926;-86
2022/06/05 05:35:13;;;;;;;;;;;13.40;99.90;;;;;;4964347;28;19926;-86
2022/06/05 05:37:40;;;;;;;;;;;13.40;99.90;;;;;;4971461;28;19941;-86
2022/06/05 05:42:56;;;;;;;;;;;13.10;99.90;;;;;;4971081;28;20413;-86
2022/06/05 05:45:23;;;;;;;;;;;13.40;99.90;;;;;;4956218;28;19949;-86
2022/06/05 05:47:51;;;;;;;;;;;13.50;99.90;;;;;;4955445;28;19926;-86
2022/06/05 05:50:19;;;;;;;;;;;13.40;99.90;;;;;;4957478;28;19930;-87
2022/06/05 05:52:47;;;;;;;;;;;13.40;99.90;;;;;;4972374;28;19926;-87
2022/06/05 05:55:15;;;;;;;;;;;13.40;99.90;;;;;;4978429;28;19926;-85
2022/06/05 05:57:43;;;;;;;;;;;13.40;99.90;;;;;;4972483;28;19930;-86
2022/06/05 06:00:13;;;;;;;;;;;13.30;99.90;;;;;;4983859;28;19936;-87
2022/06/05 06:02:41;;;;;;;;;;;13.50;99.90;;;;;;4975643;28;20233;-86
2022/06/05 06:05:15;;;;;;;;;;;13.50;99.90;;;;;;4960158;28;19926;-87
2022/06/05 06:07:43;;;;;;;;;;;13.50;99.90;;;;;;4955261;29;19927;-87
2022/06/05 06:10:12;;;;;;;;;;;13.50;99.90;;;;;;4939703;28;20405;-87
2022/06/05 06:12:39;;;;;;;;;;;13.60;99.90;;;;;;4957187;28;19926;-86
2022/06/05 06:15:07;;;;;;;;;;;13.50;99.90;;;;;;4998849;28;19926;-86
2022/06/05 06:17:35;;;;;;;;;;;13.90;99.90;;;;;;4988504;28;19926;-86
2022/06/05 06:20:03;;;;;;;;;;;13.60;99.90;;;;;;4962851;29;19918;-86
2022/06/05 06:22:31;;;;;;;;;;;13.30;99.90;;;;;;5009056;28;19933;-87
2022/06/05 06:24:58;;;;;;;;;;;13.50;99.90;;;;;;4977299;28;19932;-87
2022/06/05 06:27:26;;;;;;;;;;;13.60;99.90;;;;;;4965923;29;19933;-87
2022/06/05 06:29:54;;;;;;;;;;;13.60;99.90;;;;;;4980862;28;19910;-87
2022/06/05 06:32:23;;;;;;;;;;;13.70;99.90;;;;;;4976748;28;19924;-86
2022/06/05 06:34:55;;;;;;;;;;;14.50;99.90;;;;;;4977301;28;19930;-88
2022/06/05 06:37:22;;;;;;;;;;;13.70;99.90;;;;;;4976632;28;19920;-87
2022/06/05 06:39:50;;;;;;;;;;;13.80;99.90;;;;;;4961518;28;19914;-87
2022/06/05 06:42:17;;;;;;;;;;;13.80;99.90;;;;;;5001428;28;19951;-88
2022/06/05 06:44:46;;;;;;;;;;;13.80;99.90;;;;;;4984149;28;19917;-88
2022/06/05 06:47:13;;;;;;;;;;;12.00;99.90;;;;;;4991732;28;19930;-87
2022/06/05 06:49:41;;;;;;;;;;;13.80;99.90;;;;;;4986892;28;19926;-88
2022/06/05 06:52:08;;;;;;;;;;;13.80;99.90;;;;;;4971362;29;19937;-88
2022/06/05 06:54:36;;;;;;;;;;;13.90;99.90;;;;;;4975849;28;19934;-88
2022/06/05 06:57:03;;;;;;;;;;;14.00;99.90;;;;;;4988342;28;19926;-88
2022/06/05 06:59:31;;;;;;;;;;;13.80;99.90;;;;;;4991184;28;19926;-89
2022/06/05 07:02:02;;;;;;;;;;;13.90;99.90;;;;;;4985349;28;19937;-88
2022/06/05 07:04:29;;;;;;;;;;;13.90;99.90;;;;;;4981630;28;19941;-88
2022/06/05 07:06:57;;;;;;;;;;;13.80;99.90;;;;;;4965788;28;19930;-87
2022/06/05 07:09:24;;;;;;;;;;;13.90;99.90;;;;;;4984493;28;19933;-89
2022/06/05 07:11:52;;;;;;;;;;;13.40;99.90;;;;;;4988936;28;19926;-87
2022/06/05 07:14:20;;;;;;;;;;;13.90;99.90;;;;;;4989366;28;19930;-87
2022/06/05 07:16:49;;;;;;;;;;;14.20;99.90;;;;;;4972898;28;19932;-86
2022/06/05 07:19:17;;;;;;;;;;;14.00;99.90;;;;;;4967872;28;19931;-87
2022/06/05 07:21:45;;;;;;;;;;;14.20;99.90;;;;;;4963573;28;19986;-88
2022/06/05 07:24:13;;;;;;;;;;;14.10;99.90;;;;;;4975020;28;19927;-88
2022/06/05 07:26:40;;;;;;;;;;;14.10;99.90;;;;;;4975566;28;19926;-87
2022/06/05 07:29:08;;;;;;;;;;;14.10;99.90;;;;;;4988502;28;19936;-88
2022/06/05 07:31:40;;;;;;;;;;;14.20;99.90;;;;;;4984276;28;19941;-86
2022/06/05 07:34:09;;;;;;;;;;;14.20;99.90;;;;;;4983051;28;19926;-87
2022/06/05 07:36:36;;;;;;;;;;;14.30;99.90;;;;;;4963450;28;19941;-89
2022/06/05 07:39:04;;;;;;;;;;;13.00;99.90;;;;;;4954823;29;19923;-88
2022/06/05 07:41:33;;;;;;;;;;;14.30;99.90;;;;;;4940088;28;19930;-89
2022/06/05 07:44:01;;;;;;;;;;;14.20;99.90;;;;;;4968750;28;19930;-87
2022/06/05 07:46:31;;;;;;;;;;;14.30;99.90;;;;;;5001984;28;19920;-88
2022/06/05 07:48:59;;;;;;;;;;;14.00;99.90;;;;;;4972447;28;19945;-89
2022/06/05 07:54:30;;;;;;;;;;;14.30;99.90;;;;;;4961432;28;19937;-87
2022/06/05 07:57:09;;;;;;;;;;;14.30;99.90;;;;;;4972896;28;19914;-88
2022/06/05 07:59:40;;;;;;;;;;;14.30;99.90;;;;;;4979249;28;19930;-88
2022/06/05 08:02:10;;;;;;;;;;;13.60;99.90;;;;;;4957025;28;19941;-88
2022/06/05 08:04:38;;;;;;;;;;;14.30;99.90;;;;;;4963642;28;20401;-86
2022/06/05 08:07:06;;;;;;;;;;;14.20;99.90;;;;;;4966825;28;19926;-87
2022/06/05 08:09:34;;;;;;;;;;;14.20;99.90;;;;;;4982101;28;19945;-89
2022/06/05 08:12:04;;;;;;;;;;;14.30;99.90;;;;;;4992323;28;20082;-89
2022/06/05 08:14:34;;;;;;;;;;;14.30;99.90;;;;;;4966363;28;19929;-87
2022/06/05 08:17:05;;;;;;;;;;;14.30;99.90;;;;;;4981912;28;20133;-86
2022/06/05 08:19:36;;;;;;;;;;;14.20;99.90;;;;;;4979650;28;19934;-88
2022/06/05 08:22:04;;;;;;;;;;;14.20;99.90;;;;;;4981020;28;19922;-87
2022/06/05 08:24:34;;;;;;;;;;;14.20;99.90;;;;;;4964268;28;20412;-88
2022/06/05 08:27:08;;;;;;;;;;;14.30;99.90;;;;;;4997937;28;19941;-88
2022/06/05 08:29:35;;;;;;;;;;;14.20;99.90;;;;;;4966441;28;19936;-87
2022/06/05 08:32:04;;;;;;;;;;;14.20;99.90;;;;;;4963626;28;19930;-88
2022/06/05 08:34:31;;;;;;;;;;;14.20;99.90;;;;;;4993296;28;19929;-87
2022/06/05 08:42:57;;;;;;;;;;;14.20;99.90;;;;;;4981379;28;19925;-87
2022/06/05 08:45:36;;;;;;;;;;;14.10;99.90;;;;;;4977385;28;19933;-87
2022/06/05 08:48:09;;;;;;;;;;;14.30;99.90;;;;;;4978101;28;19945;-87
2022/06/05 08:50:48;;;;;;;;;;;13.80;99.90;;;;;;4996907;28;19941;-86
2022/06/05 08:53:22;;;;;;;;;;;14.10;99.90;;;;;;4968278;28;19933;-86
2022/06/05 08:55:52;;;;;;;;;;;14.10;99.90;;;;;;4978877;28;19930;-84
2022/06/05 08:58:26;;;;;;;;;;;14.80;99.90;;;;;;4985352;28;19934;-84
2022/06/05 09:01:03;;;;;;;;;;;14.20;99.90;;;;;;4958512;28;19930;-87
2022/06/05 09:03:58;;;;;;;;;;;14.20;99.90;;;;;;4975385;28;20673;-86
2022/06/05 09:06:30;;;;;;;;;;;13.10;99.90;;;;;;4979057;28;19926;-87
2022/06/05 09:08:58;;;;;;;;;;;14.20;99.90;;;;;;4977295;28;19929;-87
2022/06/05 09:11:34;;;;;;;;;;;14.20;99.90;;;;;;4971918;28;19937;-85
2022/06/05 09:14:22;;;;;;;;;;;14.30;99.90;;;;;;4958030;28;20857;-89
2022/06/05 09:16:53;;;;;;;;;;;14.30;99.90;;;;;;4971755;28;19930;-87
2022/06/05 09:19:26;;;;;;;;;;;14.20;99.90;;;;;;4970586;28;19937;-85
2022/06/05 09:21:56;;;;;;;;;;;14.20;99.90;;;;;;4970214;28;19926;-85
2022/06/05 09:24:25;;;;;;;;;;;14.20;99.90;;;;;;4973475;28;20425;-86
2022/06/05 09:26:59;;;;;;;;;;;14.20;99.90;;;;;;4973235;28;19926;-86
2022/06/05 09:29:53;;;;;;;;;;;14.20;99.90;;;;;;4981511;28;19938;-85
2022/06/05 09:32:45;;;;;;;;;;;14.20;99.90;;;;;;4969129;28;20373;-85
2022/06/05 09:35:16;;;;;;;;;;;14.20;99.90;;;;;;4971479;28;19926;-88
2022/06/05 09:37:57;;;;;;;;;;;14.20;99.90;;;;;;4966977;28;19934;-88
2022/06/05 09:40:30;;;;;;;;;;;14.20;99.90;;;;;;4972230;28;19934;-87
2022/06/05 09:43:08;;;;;;;;;;;14.20;99.90;;;;;;4981132;28;19941;-86
2022/06/05 09:45:47;;;;;;;;;;;14.20;99.90;;;;;;4969572;28;19934;-86
2022/06/05 09:48:15;;;;;;;;;;;14.20;99.90;;;;;;4963489;28;19933;-87
2022/06/05 09:50:44;;;;;;;;;;;14.30;99.90;;;;;;4963406;28;19941;-86
2022/06/05 09:53:15;;;;;;;;;;;13.50;99.90;;;;;;4601995;28;10000502;-86
2022/06/05 09:55:45;;;;;;;;;;;14.70;99.90;;;;;;4966874;28;19930;-86
2022/06/05 09:58:25;;;;;;;;;;;14.40;99.90;;;;;;4966712;28;20289;-86
2022/06/05 10:00:56;;;;;;;;;;;14.50;99.90;;;;;;4936962;28;19933;-86
2022/06/05 10:03:32;;;;;;;;;;;14.50;99.90;;;;;;4949889;28;20492;-84
2022/06/05 10:06:23;;;;;;;;;;;14.50;99.90;;;;;;4968893;28;20110;-86
2022/06/05 10:08:55;;;;;;;;;;;14.50;99.90;;;;;;4953608;28;19930;-87
2022/06/05 10:11:41;;;;;;;;;;;14.60;99.90;;;;;;4936895;28;19941;-88
2022/06/05 10:14:23;;;;;;;;;;;14.70;99.90;;;;;;4948842;28;19953;-86
2022/06/05 10:17:09;;;;;;;;;;;14.60;99.90;;;;;;4943312;28;19926;-87
2022/06/05 10:19:58;;;;;;;;;;;14.80;99.90;;;;;;4961064;28;19981;-87
2022/06/05 10:22:26;;;;;;;;;;;14.90;99.90;;;;;;4916227;28;19934;-86
2022/06/05 10:25:20;;;;;;;;;;;14.90;99.90;;;;;;4966620;28;19928;-86
2022/06/05 10:28:00;;;;;;;;;;;14.90;99.90;;;;;;4965988;28;20604;-87
2022/06/05 10:30:36;;;;;;;;;;;15.80;99.90;;;;;;4954040;28;19930;-86
2022/06/05 10:33:16;;;;;;;;;;;14.90;99.90;;;;;;4959191;28;19934;-86
2022/06/05 10:35:50;;;;;;;;;;;15.00;99.90;;;;;;4919659;28;19963;-86
2022/06/05 10:38:36;;;;;;;;;;;15.00;99.90;;;;;;4944499;28;19930;-87
2022/06/05 10:41:18;;;;;;;;;;;15.10;99.90;;;;;;4952644;28;23039;-87
2022/06/05 10:44:06;;;;;;;;;;;15.10;99.90;;;;;;4946004;28;20071;-87
2022/06/05 10:46:34;;;;;;;;;;;15.10;99.90;;;;;;4939369;28;19941;-87
2022/06/05 10:49:02;;;;;;;;;;;16.30;99.90;;;;;;4951727;28;20302;-87
2022/06/05 10:51:32;;;;;;;;;;;15.30;99.90;;;;;;4940833;28;20823;-87
2022/06/05 10:54:20;;;;;;;;;;;15.30;99.90;;;;;;4939876;28;19941;-87
2022/06/05 10:57:02;;;;;;;;;;;15.30;99.90;;;;;;4958524;28;19934;-87
2022/06/05 10:59:36;;;;;;;;;;;15.40;99.90;;;;;;4962519;28;19941;-86
2022/06/05 11:02:25;;;;;;;;;;;15.30;99.90;;;;;;4918732;28;19934;-86
2022/06/05 11:05:06;;;;;;;;;;;15.40;99.90;;;;;;4961821;28;19945;-88
2022/06/05 11:07:39;;;;;;;;;;;15.40;99.90;;;;;;4953366;28;19922;-88
2022/06/05 11:10:14;;;;;;;;;;;15.50;99.90;;;;;;4954713;28;19934;-87
2022/06/05 11:16:04;;;;;;;;;;;15.70;99.90;;;;;;4983566;28;19934;-88
2022/06/05 11:18:39;;;;;;;;;;;15.70;99.90;;;;;;4946134;28;19934;-90
2022/06/05 11:21:10;;;;;;;;;;;15.80;99.90;;;;;;4965631;28;19934;-88
2022/06/05 11:23:48;;;;;;;;;;;15.80;99.90;;;;;;4965691;28;19934;-88
2022/06/05 11:26:21;;;;;;;;;;;15.80;99.90;;;;;;4966128;28;19937;-87
2022/06/05 11:28:49;;;;;;;;;;;15.70;99.90;;;;;;4962888;28;19930;-88
2022/06/05 11:31:25;;;;;;;;;;;15.70;99.90;;;;;;4965217;28;20374;-86
2022/06/05 11:34:01;;;;;;;;;;;15.70;99.90;;;;;;4948246;28;19930;-88
2022/06/05 11:36:31;;;;;;;;;;;15.30;99.90;;;;;;4962979;28;19955;-88
2022/06/05 11:39:07;;;;;;;;;;;15.30;99.90;;;;;;4990324;28;19922;-87
2022/06/05 11:41:44;;;;;;;;;;;15.60;99.90;;;;;;4999376;28;19938;-87
2022/06/05 11:44:21;;;;;;;;;;;15.60;99.90;;;;;;4972444;28;19926;-89
2022/06/05 11:46:54;;;;;;;;;;;15.70;99.90;;;;;;4966246;28;19926;-90
2022/06/05 11:49:32;;;;;;;;;;;15.70;99.90;;;;;;4962900;28;19934;-88
2022/06/05 11:52:03;;;;;;;;;;;15.70;99.90;;;;;;4963602;28;19930;-88
2022/06/05 11:54:37;;;;;;;;;;;15.70;99.90;;;;;;4963429;28;20495;-87
2022/06/05 11:57:11;;;;;;;;;;;14.90;99.90;;;;;;4946363;28;19933;-86
2022/06/05 11:59:48;;;;;;;;;;;15.70;99.90;;;;;;4960315;28;19930;-87
2022/06/05 12:02:36;;;;;;;;;;;15.80;99.90;;;;;;4964025;28;19926;-87
2022/06/05 12:05:08;;;;;;;;;;;16.80;99.90;;;;;;4963928;28;20286;-86
2022/06/05 12:07:36;;;;;;;;;;;15.90;99.90;;;;;;4964777;28;19926;-91
2022/06/05 12:10:16;;;;;;;;;;;16.00;99.90;;;;;;4948611;28;19926;-88
2022/06/05 12:12:47;;;;;;;;;;;16.00;99.90;;;;;;4982274;28;19941;-86
2022/06/05 12:15:47;;;;;;;;;;;16.10;99.90;;;;;;4987447;28;19933;-90
2022/06/05 12:18:22;;;;;;;;;;;16.20;99.90;;;;;;4947076;28;19941;-86
2022/06/05 12:20:55;;;;;;;;;;;16.30;99.90;;;;;;4970672;28;19944;-85
2022/06/05 12:23:25;;;;;;;;;;;16.70;99.90;;;;;;4986566;28;20392;-89
2022/06/05 12:25:52;;;;;;;;;;;16.30;99.90;;;;;;4955878;28;19934;-88
2022/06/05 12:28:20;;;;;;;;;;;16.20;99.90;;;;;;4970245;28;19964;-87
2022/06/05 12:30:53;;;;;;;;;;;16.20;99.90;;;;;;4971769;28;19926;-87
2022/06/05 12:33:24;;;;;;;;;;;16.10;99.90;;;;;;4953757;28;19933;-88
2022/06/05 12:35:54;;;;;;;;;;;16.10;99.90;;;;;;4987595;28;19932;-88
2022/06/05 12:38:24;;;;;;;;;;;16.10;99.90;;;;;;4972628;28;19940;-87
2022/06/05 12:40:55;;;;;;;;;;;17.00;99.90;;;;;;4988229;28;19926;-86
2022/06/05 12:43:25;;;;;;;;;;;16.10;99.90;;;;;;4973410;28;20822;-85
2022/06/05 12:45:57;;;;;;;;;;;16.20;99.90;;;;;;4983472;28;20127;-88
2022/06/05 12:48:28;;;;;;;;;;;15.60;99.90;;;;;;4969366;28;19930;-87
2022/06/05 12:51:06;;;;;;;;;;;16.50;99.90;;;;;;4990203;28;19941;-89
2022/06/05 12:53:41;;;;;;;;;;;16.50;99.90;;;;;;4982662;28;19941;-86
2022/06/05 12:56:31;;;;;;;;;;;16.60;99.90;;;;;;4968497;28;19948;-84
2022/06/05 12:59:01;;;;;;;;;;;16.60;99.90;;;;;;4981489;28;19925;-87
2022/06/05 13:01:35;;;;;;;;;;;16.60;99.90;;;;;;4973475;28;19926;-87
2022/06/05 13:04:18;;;;;;;;;;;16.60;99.90;;;;;;4987714;28;19926;-86
2022/06/05 13:07:03;;;;;;;;;;;16.60;99.90;;;;;;4954742;28;19925;-89
2022/06/05 13:09:49;;;;;;;;;;;16.60;99.90;;;;;;4983972;28;19956;-89
2022/06/05 13:12:25;;;;;;;;;;;17.20;99.90;;;;;;4968901;28;20648;-89
2022/06/05 13:15:04;;;;;;;;;;;16.60;99.90;;;;;;4968304;28;19926;-90
2022/06/05 13:17:49;;;;;;;;;;;16.50;99.90;;;;;;4976977;28;19934;-88
2022/06/05 13:20:16;;;;;;;;;;;16.40;99.90;;;;;;4961467;28;19934;-86
2022/06/05 13:22:48;;;;;;;;;;;16.50;99.90;;;;;;4978171;28;19934;-88
2022/06/05 13:25:24;;;;;;;;;;;16.30;99.90;;;;;;4973051;28;20240;-86
2022/06/05 13:27:55;;;;;;;;;;;16.30;99.90;;;;;;4973737;28;19926;-88
2022/06/05 13:30:27;;;;;;;;;;;16.40;99.90;;;;;;4956571;28;19934;-90
2022/06/05 13:33:07;;;;;;;;;;;17.50;99.90;;;;;;4971679;28;19941;-87
2022/06/05 13:35:46;;;;;;;;;;;16.40;99.90;;;;;;4973672;28;19930;-89
2022/06/05 13:38:27;;;;;;;;;;;16.40;99.90;;;;;;4966303;28;19937;-88
2022/06/05 13:41:15;;;;;;;;;;;16.40;99.90;;;;;;4980641;28;19942;-86
2022/06/05 13:43:46;;;;;;;;;;;16.30;99.90;;;;;;4980055;28;19950;-86
2022/06/05 13:46:21;;;;;;;;;;;16.20;99.90;;;;;;4977815;28;19941;-88
2022/06/05 13:49:12;;;;;;;;;;;15.50;99.90;;;;;;4977053;28;19948;-88
2022/06/05 13:51:44;;;;;;;;;;;16.20;99.90;;;;;;4980689;28;19957;-87
2022/06/05 13:54:23;;;;;;;;;;;16.20;99.90;;;;;;4976080;28;19930;-89
2022/06/05 13:57:05;;;;;;;;;;;16.10;99.90;;;;;;4980873;28;20179;-90
2022/06/05 13:59:46;;;;;;;;;;;16.10;99.90;;;;;;4970973;28;19926;-87
2022/06/05 14:02:27;;;;;;;;;;;16.10;99.90;;;;;;4962042;28;19937;-90
2022/06/05 14:05:10;;;;;;;;;;;16.10;99.90;;;;;;4975262;28;19933;-92
2022/06/05 14:07:47;;;;;;;;;;;16.00;99.90;;;;;;4961339;28;19926;-88
2022/06/05 14:10:26;;;;;;;;;;;16.00;99.90;;;;;;4939453;28;20333;-89
2022/06/05 14:12:55;;;;;;;;;;;16.00;99.90;;;;;;4953006;28;19930;-88
2022/06/05 14:15:37;;;;;;;;;;;16.00;99.90;;;;;;4952537;28;20339;-90
2022/06/05 14:18:05;;;;;;;;;;;16.10;99.90;;;;;;4953093;28;19930;-89
2022/06/05 14:20:37;;;;;;;;;;;16.00;99.90;;;;;;4958167;29;19945;-91
2022/06/05 14:23:07;;;;;;;;;;;16.00;99.90;;;;;;4942398;29;19930;-88
2022/06/05 14:25:37;;;;;;;;;;;16.00;99.90;;;;;;4919441;29;20290;-88
2022/06/05 14:28:06;;;;;;;;;;;16.00;99.90;;;;;;4950945;28;19931;-88
2022/06/05 14:30:37;;;;;;;;;;;16.10;99.90;;;;;;4950095;29;20455;-87
2022/06/05 14:33:07;;;;;;;;;;;16.10;99.90;;;;;;4950467;28;19934;-87
2022/06/05 14:35:36;;;;;;;;;;;16.10;99.90;;;;;;4950123;29;19927;-87
2022/06/05 14:38:20;;;;;;;;;;;16.20;99.90;;;;;;4948229;28;20073;-88
2022/06/05 14:40:47;;;;;;;;;;;16.30;99.90;;;;;;4948460;29;19931;-89
2022/06/05 14:43:34;;;;;;;;;;;16.30;99.90;;;;;;4965276;28;19934;-90
2022/06/05 14:46:17;;;;;;;;;;;16.30;99.90;;;;;;4950406;28;20302;-87
2022/06/05 14:48:51;;;;;;;;;;;16.30;99.90;;;;;;4949243;28;19957;-89
2022/06/05 14:51:24;;;;;;;;;;;16.30;99.90;;;;;;4936604;29;19946;-87
2022/06/05 14:53:56;;;;;;;;;;;16.30;99.90;;;;;;4605659;28;10000524;-87
2022/06/05 14:59:41;;;;;;;;;;;16.20;99.90;;;;;;4946976;29;20389;-86
2022/06/05 15:02:17;;;;;;;;;;;16.20;99.90;;;;;;4943441;29;19930;-87
2022/06/05 15:04:49;;;;;;;;;;;16.10;99.90;;;;;;4948462;29;19930;-88
2022/06/05 15:07:26;;;;;;;;;;;16.00;99.90;;;;;;4949126;29;19937;-87
2022/06/05 15:10:14;;;;;;;;;;;16.00;99.90;;;;;;4934335;29;20500;-86